sensor_id;sensor_type;location;lat;lon;timestamp;pressure;altitude;pressure_sealevel;temperature;humidity
36386;BME280;24125;47.482;8.770;2023-04-19T00:02:11;96549.31;;;13.07;77.24
36386;BME280;24125;47.482;8.770;2023-04-19T00:04:44;96554.34;;;13.08;77.79
36386;BME280;24125;47.482;8.770;2023-04-19T00:07:17;96559.06;;;13.11;77.15
36386;BME280;24125;47.482;8.770;2023-04-19T00:09:50;96553.06;;;13.14;77.47
36386;BME280;24125;47.482;8.770;2023-04-19T00:12:23;96556.50;;;13.15;76.25
36386;BME280;24125;47.482;8.770;2023-04-19T00:14:56;96552.38;;;13.17;77.05
36386;BME280;24125;47.482;8.770;2023-04-19T00:17:30;96542.44;;;13.18;78.25
36386;BME280;24125;47.482;8.770;2023-04-19T00:20:03;96543.69;;;13.20;77.90
36386;BME280;24125;47.482;8.770;2023-04-19T00:22:36;96545.25;;;13.21;77.15
36386;BME280;24125;47.482;8.770;2023-04-19T00:25:09;96549.94;;;13.25;78.37
36386;BME280;24125;47.482;8.770;2023-04-19T00:27:42;96545.03;;;13.27;78.53
36386;BME280;24125;47.482;8.770;2023-04-19T00:30:14;96548.50;;;13.27;77.67
36386;BME280;24125;47.482;8.770;2023-04-19T00:32:49;96551.63;;;13.29;77.85
36386;BME280;24125;47.482;8.770;2023-04-19T00:35:21;96550.53;;;13.30;77.74
36386;BME280;24125;47.482;8.770;2023-04-19T00:37:54;96540.59;;;13.31;76.64
36386;BME280;24125;47.482;8.770;2023-04-19T00:40:27;96545.25;;;13.34;77.49
36386;BME280;24125;47.482;8.770;2023-04-19T00:42:59;96545.72;;;13.36;77.37
36386;BME280;24125;47.482;8.770;2023-04-19T00:45:33;96542.38;;;13.39;77.51
36386;BME280;24125;47.482;8.770;2023-04-19T00:48:08;96541.25;;;13.40;77.52
36386;BME280;24125;47.482;8.770;2023-04-19T00:50:41;96529.06;;;13.42;77.48
36386;BME280;24125;47.482;8.770;2023-04-19T00:53:14;96531.41;;;13.44;77.22
36386;BME280;24125;47.482;8.770;2023-04-19T00:55:47;96530.75;;;13.47;77.18
36386;BME280;24125;47.482;8.770;2023-04-19T00:58:21;96521.25;;;13.49;77.10
36386;BME280;24125;47.482;8.770;2023-04-19T01:00:54;96524.38;;;13.51;77.11
36386;BME280;24125;47.482;8.770;2023-04-19T01:03:29;96522.16;;;13.53;77.22
36386;BME280;24125;47.482;8.770;2023-04-19T01:06:02;96521.81;;;13.55;77.49
36386;BME280;24125;47.482;8.770;2023-04-19T01:08:34;96520.38;;;13.57;77.42
36386;BME280;24125;47.482;8.770;2023-04-19T01:11:07;96521.59;;;13.60;77.35
36386;BME280;24125;47.482;8.770;2023-04-19T01:13:40;96523.59;;;13.63;77.06
36386;BME280;24125;47.482;8.770;2023-04-19T01:16:13;96521.38;;;13.65;77.45
36386;BME280;24125;47.482;8.770;2023-04-19T01:18:47;96516.78;;;13.66;78.05
36386;BME280;24125;47.482;8.770;2023-04-19T01:21:20;96509.16;;;13.68;77.84
36386;BME280;24125;47.482;8.770;2023-04-19T01:23:55;96514.66;;;13.71;77.46
36386;BME280;24125;47.482;8.770;2023-04-19T01:26:28;96514.66;;;13.71;77.18
36386;BME280;24125;47.482;8.770;2023-04-19T01:29:00;96514.66;;;13.71;77.00
36386;BME280;24125;47.482;8.770;2023-04-19T01:31:33;96512.44;;;13.73;77.02
36386;BME280;24125;47.482;8.770;2023-04-19T01:34:06;96513.22;;;13.74;77.00
36386;BME280;24125;47.482;8.770;2023-04-19T01:36:39;96511.31;;;13.74;76.55
36386;BME280;24125;47.482;8.770;2023-04-19T01:39:13;96510.16;;;13.75;76.88
36386;BME280;24125;47.482;8.770;2023-04-19T01:41:46;96504.03;;;13.75;76.66
36386;BME280;24125;47.482;8.770;2023-04-19T01:44:19;96505.59;;;13.76;76.40
36386;BME280;24125;47.482;8.770;2023-04-19T01:46:51;96499.09;;;13.77;77.11
36386;BME280;24125;47.482;8.770;2023-04-19T01:49:25;96503.34;;;13.78;76.90
36386;BME280;24125;47.482;8.770;2023-04-19T01:51:58;96498.00;;;13.78;77.16
36386;BME280;24125;47.482;8.770;2023-04-19T01:54:32;96500.34;;;13.79;76.72
36386;BME280;24125;47.482;8.770;2023-04-19T01:57:05;96496.09;;;13.78;76.79
36386;BME280;24125;47.482;8.770;2023-04-19T01:59:37;96500.34;;;13.79;76.53
36386;BME280;24125;47.482;8.770;2023-04-19T02:02:10;96498.44;;;13.80;76.73
36386;BME280;24125;47.482;8.770;2023-04-19T02:04:43;96497.31;;;13.81;76.83
36386;BME280;24125;47.482;8.770;2023-04-19T02:07:16;96491.63;;;13.82;76.71
36386;BME280;24125;47.482;8.770;2023-04-19T02:09:50;96499.66;;;13.82;77.02
36386;BME280;24125;47.482;8.770;2023-04-19T02:12:23;96501.25;;;13.83;77.13
36386;BME280;24125;47.482;8.770;2023-04-19T02:14:55;96492.03;;;13.84;77.06
36386;BME280;24125;47.482;8.770;2023-04-19T02:17:28;96494.41;;;13.86;76.98
36386;BME280;24125;47.482;8.770;2023-04-19T02:20:03;96488.25;;;13.85;76.72
36386;BME280;24125;47.482;8.770;2023-04-19T02:22:36;96485.22;;;13.87;76.57
36386;BME280;24125;47.482;8.770;2023-04-19T02:25:10;96487.56;;;13.88;76.74
36386;BME280;24125;47.482;8.770;2023-04-19T02:27:43;96489.47;;;13.88;76.92
36386;BME280;24125;47.482;8.770;2023-04-19T02:30:15;96491.84;;;13.89;77.15
36386;BME280;24125;47.482;8.770;2023-04-19T02:32:48;96491.84;;;13.89;77.11
36386;BME280;24125;47.482;8.770;2023-04-19T02:35:21;96491.50;;;13.91;76.93
36386;BME280;24125;47.482;8.770;2023-04-19T02:37:54;96492.28;;;13.91;76.87
36386;BME280;24125;47.482;8.770;2023-04-19T02:40:28;96495.75;;;13.92;76.77
36386;BME280;24125;47.482;8.770;2023-04-19T02:43:00;96489.22;;;13.93;77.01
36386;BME280;24125;47.482;8.770;2023-04-19T02:45:35;96491.13;;;13.92;76.55
36386;BME280;24125;47.482;8.770;2023-04-19T02:48:08;96480.84;;;13.94;76.58
36386;BME280;24125;47.482;8.770;2023-04-19T02:50:41;96488.13;;;13.94;76.61
36386;BME280;24125;47.482;8.770;2023-04-19T02:53:13;96488.13;;;13.94;76.53
36386;BME280;24125;47.482;8.770;2023-04-19T02:55:47;96481.97;;;13.93;76.54
36386;BME280;24125;47.482;8.770;2023-04-19T02:58:20;96482.75;;;13.94;76.39
36386;BME280;24125;47.482;8.770;2023-04-19T03:00:53;96484.66;;;13.93;76.40
36386;BME280;24125;47.482;8.770;2023-04-19T03:03:26;96478.94;;;13.95;76.54
36386;BME280;24125;47.482;8.770;2023-04-19T03:05:59;96485.09;;;13.95;76.59
36386;BME280;24125;47.482;8.770;2023-04-19T03:08:31;96487.00;;;13.95;76.21
36386;BME280;24125;47.482;8.770;2023-04-19T03:11:06;96480.06;;;13.94;76.56
36386;BME280;24125;47.482;8.770;2023-04-19T03:13:39;96483.09;;;13.92;76.41
36386;BME280;24125;47.482;8.770;2023-04-19T03:16:11;96479.28;;;13.93;76.62
36386;BME280;24125;47.482;8.770;2023-04-19T03:18:44;96481.97;;;13.93;76.48
36386;BME280;24125;47.482;8.770;2023-04-19T03:21:19;96478.50;;;13.93;76.26
36386;BME280;24125;47.482;8.770;2023-04-19T03:23:52;96480.41;;;13.92;76.16
36386;BME280;24125;47.482;8.770;2023-04-19T03:26:26;96477.72;;;13.92;76.45
36386;BME280;24125;47.482;8.770;2023-04-19T03:28:59;96467.75;;;13.93;76.50
36386;BME280;24125;47.482;8.770;2023-04-19T03:31:32;96463.53;;;13.92;76.58
36386;BME280;24125;47.482;8.770;2023-04-19T03:34:05;96460.06;;;13.91;76.53
36386;BME280;24125;47.482;8.770;2023-04-19T03:36:38;96466.97;;;13.92;76.36
36386;BME280;24125;47.482;8.770;2023-04-19T03:39:11;96453.13;;;13.90;77.11
36386;BME280;24125;47.482;8.770;2023-04-19T03:41:45;96459.28;;;13.91;76.62
36386;BME280;24125;47.482;8.770;2023-04-19T03:44:18;96456.25;;;13.92;76.59
36386;BME280;24125;47.482;8.770;2023-04-19T03:46:51;96458.50;;;13.90;76.41
36386;BME280;24125;47.482;8.770;2023-04-19T03:49:24;96454.25;;;13.89;76.41
36386;BME280;24125;47.482;8.770;2023-04-19T03:51:56;96450.44;;;13.90;76.81
36386;BME280;24125;47.482;8.770;2023-04-19T03:54:29;96452.81;;;13.92;76.59
36386;BME280;24125;47.482;8.770;2023-04-19T03:57:03;96453.91;;;13.91;76.73
36386;BME280;24125;47.482;8.770;2023-04-19T03:59:36;96460.50;;;13.93;76.74
36386;BME280;24125;47.482;8.770;2023-04-19T04:02:09;96457.81;;;13.93;76.75
36386;BME280;24125;47.482;8.770;2023-04-19T04:04:41;96456.69;;;13.94;76.60
36386;BME280;24125;47.482;8.770;2023-04-19T04:07:14;96456.69;;;13.94;76.63
36386;BME280;24125;47.482;8.770;2023-04-19T04:09:47;96454.00;;;13.94;76.62
36386;BME280;24125;47.482;8.770;2023-04-19T04:12:22;96463.63;;;13.95;76.49
36386;BME280;24125;47.482;8.770;2023-04-19T04:14:54;96459.81;;;13.96;76.52
36386;BME280;24125;47.482;8.770;2023-04-19T04:17:27;96453.66;;;13.96;76.65
36386;BME280;24125;47.482;8.770;2023-04-19T04:20:00;96463.28;;;13.97;76.72
36386;BME280;24125;47.482;8.770;2023-04-19T04:22:33;96463.28;;;13.97;76.17
36386;BME280;24125;47.482;8.770;2023-04-19T04:25:06;96455.56;;;13.95;76.38
36386;BME280;24125;47.482;8.770;2023-04-19T04:27:40;96458.25;;;13.95;76.47
36386;BME280;24125;47.482;8.770;2023-04-19T04:30:14;96461.72;;;13.96;76.38
36386;BME280;24125;47.482;8.770;2023-04-19T04:32:47;96458.25;;;13.95;76.70
36386;BME280;24125;47.482;8.770;2023-04-19T04:35:21;96459.03;;;13.96;76.45
36386;BME280;24125;47.482;8.770;2023-04-19T04:37:54;96467.09;;;13.96;76.20
36386;BME280;24125;47.482;8.770;2023-04-19T04:40:27;96463.19;;;13.93;76.46
36386;BME280;24125;47.482;8.770;2023-04-19T04:43:01;96470.13;;;13.94;76.54
36386;BME280;24125;47.482;8.770;2023-04-19T04:45:35;96470.13;;;13.94;76.64
36386;BME280;24125;47.482;8.770;2023-04-19T04:48:08;96469.31;;;13.94;76.59
36386;BME280;24125;47.482;8.770;2023-04-19T04:50:41;96467.75;;;13.93;76.61
36386;BME280;24125;47.482;8.770;2023-04-19T04:53:14;96468.53;;;13.93;76.77
36386;BME280;24125;47.482;8.770;2023-04-19T04:55:47;96470.44;;;13.93;76.66
36386;BME280;24125;47.482;8.770;2023-04-19T04:58:21;96465.06;;;13.93;76.72
36386;BME280;24125;47.482;8.770;2023-04-19T05:00:54;96465.53;;;13.95;76.76
36386;BME280;24125;47.482;8.770;2023-04-19T05:03:26;96467.44;;;13.94;76.68
36386;BME280;24125;47.482;8.770;2023-04-19T05:06:00;96464.75;;;13.94;76.63
36386;BME280;24125;47.482;8.770;2023-04-19T05:08:33;96468.66;;;13.97;76.83
36386;BME280;24125;47.482;8.770;2023-04-19T05:11:05;96469.91;;;14.00;76.97
36386;BME280;24125;47.482;8.770;2023-04-19T05:13:40;96475.59;;;13.98;76.81
36386;BME280;24125;47.482;8.770;2023-04-19T05:16:12;96473.00;;;14.02;76.66
36386;BME280;24125;47.482;8.770;2023-04-19T05:18:45;96471.53;;;14.04;76.85
36386;BME280;24125;47.482;8.770;2023-04-19T05:21:18;96471.22;;;14.06;77.15
36386;BME280;24125;47.482;8.770;2023-04-19T05:23:51;96467.75;;;14.05;76.62
36386;BME280;24125;47.482;8.770;2023-04-19T05:26:24;96470.88;;;14.07;77.31
36386;BME280;24125;47.482;8.770;2023-04-19T05:28:59;96468.53;;;14.06;77.05
36386;BME280;24125;47.482;8.770;2023-04-19T05:31:31;96469.31;;;14.06;76.95
36386;BME280;24125;47.482;8.770;2023-04-19T05:34:04;96477.03;;;14.08;76.69
36386;BME280;24125;47.482;8.770;2023-04-19T05:36:37;96473.56;;;14.07;76.82
36386;BME280;24125;47.482;8.770;2023-04-19T05:39:10;96476.56;;;14.06;76.91
36386;BME280;24125;47.482;8.770;2023-04-19T05:41:44;96474.69;;;14.06;76.90
36386;BME280;24125;47.482;8.770;2023-04-19T05:44:18;96472.78;;;14.07;77.05
36386;BME280;24125;47.482;8.770;2023-04-19T05:46:51;96466.28;;;14.08;76.72
36386;BME280;24125;47.482;8.770;2023-04-19T05:49:23;96477.03;;;14.08;76.72
36386;BME280;24125;47.482;8.770;2023-04-19T05:51:56;96479.00;;;14.11;76.91
36386;BME280;24125;47.482;8.770;2023-04-19T05:54:29;96476.78;;;14.13;76.96
36386;BME280;24125;47.482;8.770;2023-04-19T05:57:06;96472.97;;;14.14;77.02
36386;BME280;24125;47.482;8.770;2023-04-19T05:59:40;96484.63;;;14.18;77.13
36386;BME280;24125;47.482;8.770;2023-04-19T06:02:13;96482.34;;;14.20;77.36
36386;BME280;24125;47.482;8.770;2023-04-19T06:04:46;96480.88;;;14.22;77.45
36386;BME280;24125;47.482;8.770;2023-04-19T06:07:19;96479.44;;;14.25;77.53
36386;BME280;24125;47.482;8.770;2023-04-19T06:10:01;96478.72;;;14.28;77.27
36386;BME280;24125;47.482;8.770;2023-04-19T06:12:34;96480.75;;;14.31;77.29
36386;BME280;24125;47.482;8.770;2023-04-19T06:15:09;96479.28;;;14.33;77.11
36386;BME280;24125;47.482;8.770;2023-04-19T06:17:42;96479.75;;;14.35;77.61
36386;BME280;24125;47.482;8.770;2023-04-19T06:20:15;96475.56;;;14.38;77.27
36386;BME280;24125;47.482;8.770;2023-04-19T06:22:49;96480.31;;;14.41;77.20
36386;BME280;24125;47.482;8.770;2023-04-19T06:25:22;96481.16;;;14.45;77.21
36386;BME280;24125;47.482;8.770;2023-04-19T06:27:55;96487.44;;;14.49;77.51
36386;BME280;24125;47.482;8.770;2023-04-19T06:30:30;96484.84;;;14.53;77.47
36386;BME280;24125;47.482;8.770;2023-04-19T06:33:02;96483.03;;;14.57;77.58
36386;BME280;24125;47.482;8.770;2023-04-19T06:35:35;96483.13;;;14.60;77.25
36386;BME280;24125;47.482;8.770;2023-04-19T06:38:08;96486.34;;;14.66;77.20
36386;BME280;24125;47.482;8.770;2023-04-19T06:40:41;96488.69;;;14.67;77.18
36386;BME280;24125;47.482;8.770;2023-04-19T06:43:14;96489.56;;;14.71;77.44
36386;BME280;24125;47.482;8.770;2023-04-19T06:45:48;96483.94;;;14.77;77.75
36386;BME280;24125;47.482;8.770;2023-04-19T06:48:21;96492.44;;;14.79;77.39
36386;BME280;24125;47.482;8.770;2023-04-19T06:50:54;96494.09;;;14.83;77.84
36386;BME280;24125;47.482;8.770;2023-04-19T06:53:27;96485.69;;;14.85;77.26
36386;BME280;24125;47.482;8.770;2023-04-19T06:56:00;96494.28;;;14.90;77.40
36386;BME280;24125;47.482;8.770;2023-04-19T06:58:34;96492.03;;;14.92;77.46
36386;BME280;24125;47.482;8.770;2023-04-19T07:01:08;96499.03;;;14.97;77.35
36386;BME280;24125;47.482;8.770;2023-04-19T07:03:44;96497.91;;;14.98;77.27
36386;BME280;24125;47.482;8.770;2023-04-19T07:06:17;96491.09;;;15.00;76.22
36386;BME280;24125;47.482;8.770;2023-04-19T07:08:50;96499.16;;;15.00;77.07
36386;BME280;24125;47.482;8.770;2023-04-19T07:11:22;96498.47;;;15.03;76.90
36386;BME280;24125;47.482;8.770;2023-04-19T07:13:55;96501.94;;;15.04;77.00
36386;BME280;24125;47.482;8.770;2023-04-19T07:16:29;96497.34;;;15.04;77.12
36386;BME280;24125;47.482;8.770;2023-04-19T07:19:02;96494.28;;;15.06;76.83
36386;BME280;24125;47.482;8.770;2023-04-19T07:21:35;96497.41;;;15.08;76.28
36386;BME280;24125;47.482;8.770;2023-04-19T07:24:09;96498.97;;;15.09;77.18
36386;BME280;24125;47.482;8.770;2023-04-19T07:26:41;96500.56;;;15.10;77.44
36386;BME280;24125;47.482;8.770;2023-04-19T07:29:14;96489.78;;;15.10;77.00
36386;BME280;24125;47.482;8.770;2023-04-19T07:31:48;96498.66;;;15.10;76.93
36386;BME280;24125;47.482;8.770;2023-04-19T07:34:21;96497.84;;;15.10;77.11
36386;BME280;24125;47.482;8.770;2023-04-19T07:36:54;96506.72;;;15.10;77.39
36386;BME280;24125;47.482;8.770;2023-04-19T07:39:27;96496.75;;;15.11;76.87
36386;BME280;24125;47.482;8.770;2023-04-19T07:42:01;96497.53;;;15.12;76.73
36386;BME280;24125;47.482;8.770;2023-04-19T07:44:33;96492.13;;;15.12;76.67
36386;BME280;24125;47.482;8.770;2023-04-19T07:47:08;96495.63;;;15.12;76.52
36386;BME280;24125;47.482;8.770;2023-04-19T07:49:41;96500.22;;;15.12;75.92
36386;BME280;24125;47.482;8.770;2023-04-19T07:52:14;96496.41;;;15.13;77.91
36386;BME280;24125;47.482;8.770;2023-04-19T07:54:48;96497.19;;;15.13;77.26
36386;BME280;24125;47.482;8.770;2023-04-19T07:57:21;96495.94;;;15.10;76.60
36386;BME280;24125;47.482;8.770;2023-04-19T07:59:54;96491.69;;;15.09;76.47
36386;BME280;24125;47.482;8.770;2023-04-19T08:02:31;96489.78;;;15.10;76.80
36386;BME280;24125;47.482;8.770;2023-04-19T08:05:04;96492.47;;;15.10;76.15
36386;BME280;24125;47.482;8.770;2023-04-19T08:07:37;96491.34;;;15.11;77.73
36386;BME280;24125;47.482;8.770;2023-04-19T08:10:10;96487.09;;;15.10;76.67
36386;BME280;24125;47.482;8.770;2023-04-19T08:12:43;96488.31;;;15.13;76.03
36386;BME280;24125;47.482;8.770;2023-04-19T08:15:35;96488.75;;;15.15;75.84
36386;BME280;24125;47.482;8.770;2023-04-19T08:18:29;96488.06;;;15.18;76.63
36386;BME280;24125;47.482;8.770;2023-04-19T08:21:02;96488.84;;;15.18;75.51
36386;BME280;24125;47.482;8.770;2023-04-19T08:23:35;96492.31;;;15.19;71.37
36386;BME280;24125;47.482;8.770;2023-04-19T08:26:18;96488.16;;;15.21;75.04
36386;BME280;24125;47.482;8.770;2023-04-19T08:28:51;96487.38;;;15.21;74.29
36386;BME280;24125;47.482;8.770;2023-04-19T08:31:24;96492.38;;;15.22;74.93
36386;BME280;24125;47.482;8.770;2023-04-19T08:33:58;96483.19;;;15.23;75.68
36386;BME280;24125;47.482;8.770;2023-04-19T08:36:33;96487.44;;;15.24;74.52
36386;BME280;24125;47.482;8.770;2023-04-19T08:39:13;96486.31;;;15.25;76.40
36386;BME280;24125;47.482;8.770;2023-04-19T08:42:03;96487.53;;;15.28;74.68
36386;BME280;24125;47.482;8.770;2023-04-19T08:44:54;96480.69;;;15.30;74.89
36386;BME280;24125;47.482;8.770;2023-04-19T08:47:48;96492.31;;;15.34;77.35
36386;BME280;24125;47.482;8.770;2023-04-19T08:50:33;96487.88;;;15.42;74.97
36386;BME280;24125;47.482;8.770;2023-04-19T08:53:27;96481.47;;;15.46;76.99
36386;BME280;24125;47.482;8.770;2023-04-19T08:56:00;96479.28;;;15.52;77.49
36386;BME280;24125;47.482;8.770;2023-04-19T08:58:35;96476.00;;;15.59;77.40
36386;BME280;24125;47.482;8.770;2023-04-19T09:01:28;96471.56;;;15.66;78.01
36386;BME280;24125;47.482;8.770;2023-04-19T09:04:06;96474.84;;;15.75;76.78
36386;BME280;24125;47.482;8.770;2023-04-19T09:07:00;96474.22;;;15.82;77.01
36386;BME280;24125;47.482;8.770;2023-04-19T09:09:33;96472.47;;;15.90;77.57
36386;BME280;24125;47.482;8.770;2023-04-19T09:12:26;96470.72;;;15.97;77.28
36386;BME280;24125;47.482;8.770;2023-04-19T09:14:58;96463.91;;;16.03;76.93
36386;BME280;24125;47.482;8.770;2023-04-19T09:17:33;96468.75;;;16.13;79.66
36386;BME280;24125;47.482;8.770;2023-04-19T09:20:06;96464.19;;;16.17;77.80
36386;BME280;24125;47.482;8.770;2023-04-19T09:22:40;96460.88;;;16.24;76.39
36386;BME280;24125;47.482;8.770;2023-04-19T09:25:22;96466.75;;;16.30;77.27
36386;BME280;24125;47.482;8.770;2023-04-19T09:28:15;96455.69;;;16.35;73.39
36386;BME280;24125;47.482;8.770;2023-04-19T09:30:48;96463.50;;;16.40;74.99
36386;BME280;24125;47.482;8.770;2023-04-19T09:33:31;96467.81;;;16.44;77.01
36386;BME280;24125;47.482;8.770;2023-04-19T09:36:04;96453.97;;;16.46;75.55
36386;BME280;24125;47.482;8.770;2023-04-19T09:38:48;96454.75;;;16.46;76.54
36386;BME280;24125;47.482;8.770;2023-04-19T09:41:21;96449.03;;;16.48;75.67
36386;BME280;24125;47.482;8.770;2023-04-19T09:43:54;96452.56;;;16.52;76.52
36386;BME280;24125;47.482;8.770;2023-04-19T09:47:00;96448.03;;;16.56;77.46
36386;BME280;24125;47.482;8.770;2023-04-19T09:49:33;96444.69;;;16.63;77.77
36386;BME280;24125;47.482;8.770;2023-04-19T09:52:19;96438.25;;;16.67;72.75
36386;BME280;24125;47.482;8.770;2023-04-19T09:54:53;96446.09;;;16.76;76.75
36386;BME280;24125;47.482;8.770;2023-04-19T09:57:27;96443.53;;;16.83;75.62
36386;BME280;24125;47.482;8.770;2023-04-19T10:00:00;96439.47;;;16.92;75.63
36386;BME280;24125;47.482;8.770;2023-04-19T10:02:36;96434.97;;;17.00;77.58
36386;BME280;24125;47.482;8.770;2023-04-19T10:05:10;96428.47;;;17.05;70.72
36386;BME280;24125;47.482;8.770;2023-04-19T10:07:52;96430.13;;;17.09;72.52
36386;BME280;24125;47.482;8.770;2023-04-19T10:10:31;96430.94;;;17.13;74.63
36386;BME280;24125;47.482;8.770;2023-04-19T10:13:12;96429.50;;;17.19;77.39
36386;BME280;24125;47.482;8.770;2023-04-19T10:15:53;96437.34;;;17.28;75.03
36386;BME280;24125;47.482;8.770;2023-04-19T10:18:35;96423.56;;;17.33;76.38
36386;BME280;24125;47.482;8.770;2023-04-19T10:21:08;96423.28;;;17.42;77.34
36386;BME280;24125;47.482;8.770;2023-04-19T10:23:42;96417.22;;;17.48;78.60
36386;BME280;24125;47.482;8.770;2023-04-19T10:26:16;96420.03;;;17.55;77.92
36386;BME280;24125;47.482;8.770;2023-04-19T10:28:48;96427.13;;;17.63;78.39
36386;BME280;24125;47.482;8.770;2023-04-19T10:31:22;96417.91;;;17.68;77.78
36386;BME280;24125;47.482;8.770;2023-04-19T10:33:56;96422.25;;;17.73;77.50
36386;BME280;24125;47.482;8.770;2023-04-19T10:36:30;96417.59;;;17.73;75.02
36386;BME280;24125;47.482;8.770;2023-04-19T10:39:04;96415.69;;;17.73;75.01
36386;BME280;24125;47.482;8.770;2023-04-19T10:41:58;96416.41;;;17.70;74.00
36386;BME280;24125;47.482;8.770;2023-04-19T10:44:31;96406.75;;;17.69;76.28
36386;BME280;24125;47.482;8.770;2023-04-19T10:47:04;96401.38;;;17.69;76.62
36386;BME280;24125;47.482;8.770;2023-04-19T10:49:43;96393.97;;;17.66;76.04
36386;BME280;24125;47.482;8.770;2023-04-19T10:52:25;96389.78;;;17.69;76.11
36386;BME280;24125;47.482;8.770;2023-04-19T10:54:59;96389.06;;;17.72;76.49
36386;BME280;24125;47.482;8.770;2023-04-19T11:00:24;96384.13;;;17.78;75.90
36386;BME280;24125;47.482;8.770;2023-04-19T11:03:49;96379.16;;;17.83;76.61
36386;BME280;24125;47.482;8.770;2023-04-19T11:08:57;96373.09;;;17.90;77.07
36386;BME280;24125;47.482;8.770;2023-04-19T11:11:32;96370.41;;;17.93;76.80
36386;BME280;24125;47.482;8.770;2023-04-19T11:14:04;96376.25;;;17.99;76.89
36386;BME280;24125;47.482;8.770;2023-04-19T11:16:41;96376.31;;;18.02;77.57
36386;BME280;24125;47.482;8.770;2023-04-19T11:19:16;96369.03;;;18.06;76.03
36386;BME280;24125;47.482;8.770;2023-04-19T11:21:50;96363.72;;;18.14;77.84
36386;BME280;24125;47.482;8.770;2023-04-19T11:24:23;96363.00;;;18.20;76.91
36386;BME280;24125;47.482;8.770;2023-04-19T11:26:55;96349.97;;;18.29;76.25
36386;BME280;24125;47.482;8.770;2023-04-19T11:29:29;96347.41;;;18.40;75.20
36386;BME280;24125;47.482;8.770;2023-04-19T11:32:04;96349.81;;;18.52;78.39
36386;BME280;24125;47.482;8.770;2023-04-19T11:34:38;96351.91;;;18.66;77.42
36386;BME280;24125;47.482;8.770;2023-04-19T11:37:10;96342.72;;;18.77;78.02
36386;BME280;24125;47.482;8.770;2023-04-19T11:39:44;96344.38;;;18.89;78.71
36386;BME280;24125;47.482;8.770;2023-04-19T11:42:17;96339.38;;;18.95;77.53
36386;BME280;24125;47.482;8.770;2023-04-19T11:44:51;96330.56;;;19.01;77.13
36386;BME280;24125;47.482;8.770;2023-04-19T11:47:25;96333.69;;;19.07;76.25
36386;BME280;24125;47.482;8.770;2023-04-19T11:50:09;96323.28;;;19.09;75.75
36386;BME280;24125;47.482;8.770;2023-04-19T11:52:54;96330.25;;;19.10;76.56
36386;BME280;24125;47.482;8.770;2023-04-19T11:55:26;96322.09;;;19.06;73.78
36386;BME280;24125;47.482;8.770;2023-04-19T11:58:05;96319.38;;;19.06;74.64
36386;BME280;24125;47.482;8.770;2023-04-19T12:00:45;96319.34;;;19.03;72.46
36386;BME280;24125;47.482;8.770;2023-04-19T12:03:21;96319.75;;;19.01;74.96
36386;BME280;24125;47.482;8.770;2023-04-19T12:05:57;96315.44;;;18.97;65.57
36386;BME280;24125;47.482;8.770;2023-04-19T12:08:31;96313.13;;;18.95;71.03
36386;BME280;24125;47.482;8.770;2023-04-19T12:11:04;96320.84;;;18.93;69.83
36386;BME280;24125;47.482;8.770;2023-04-19T12:13:37;96318.09;;;18.90;73.35
36386;BME280;24125;47.482;8.770;2023-04-19T12:16:11;96315.38;;;18.86;76.26
36386;BME280;24125;47.482;8.770;2023-04-19T12:18:45;96309.56;;;18.84;73.65
36386;BME280;24125;47.482;8.770;2023-04-19T12:21:23;96319.97;;;18.82;73.30
36386;BME280;24125;47.482;8.770;2023-04-19T12:23:58;96315.31;;;18.79;70.82
36386;BME280;24125;47.482;8.770;2023-04-19T12:26:31;96315.31;;;18.79;72.24
36386;BME280;24125;47.482;8.770;2023-04-19T12:29:04;96315.31;;;18.79;72.48
36386;BME280;24125;47.482;8.770;2023-04-19T12:31:37;96316.47;;;18.78;73.50
36386;BME280;24125;47.482;8.770;2023-04-19T12:34:11;96319.56;;;18.76;76.38
36386;BME280;24125;47.482;8.770;2023-04-19T12:36:44;96309.47;;;18.73;74.70
36386;BME280;24125;47.482;8.770;2023-04-19T12:39:16;96309.84;;;18.72;71.99
36386;BME280;24125;47.482;8.770;2023-04-19T12:41:49;96304.41;;;18.68;74.93
36386;BME280;24125;47.482;8.770;2023-04-19T12:44:22;96303.25;;;18.66;70.34
36386;BME280;24125;47.482;8.770;2023-04-19T12:46:55;96307.50;;;18.67;73.15
36386;BME280;24125;47.482;8.770;2023-04-19T12:49:29;96301.69;;;18.65;77.65
36386;BME280;24125;47.482;8.770;2023-04-19T12:52:02;96297.84;;;18.66;69.88
36386;BME280;24125;47.482;8.770;2023-04-19T12:54:35;96298.25;;;18.68;74.40
36386;BME280;24125;47.482;8.770;2023-04-19T12:57:08;96296.28;;;18.68;72.37
36386;BME280;24125;47.482;8.770;2023-04-19T12:59:41;96289.38;;;18.71;74.71
36386;BME280;24125;47.482;8.770;2023-04-19T13:02:13;96298.63;;;18.70;72.70
36386;BME280;24125;47.482;8.770;2023-04-19T13:04:48;96285.09;;;18.70;64.63
36386;BME280;24125;47.482;8.770;2023-04-19T13:07:21;96275.44;;;18.69;74.07
36386;BME280;24125;47.482;8.770;2023-04-19T13:09:54;96274.28;;;18.66;74.67
36386;BME280;24125;47.482;8.770;2023-04-19T13:12:27;96274.59;;;18.61;65.75
36386;BME280;24125;47.482;8.770;2023-04-19T13:15:00;96269.56;;;18.60;74.61
36386;BME280;24125;47.482;8.770;2023-04-19T13:17:35;96272.28;;;18.60;75.73
36386;BME280;24125;47.482;8.770;2023-04-19T13:20:10;96273.81;;;18.61;76.25
36386;BME280;24125;47.482;8.770;2023-04-19T13:22:42;96263.78;;;18.61;75.89
36386;BME280;24125;47.482;8.770;2023-04-19T13:25:15;96256.47;;;18.62;73.50
36386;BME280;24125;47.482;8.770;2023-04-19T13:27:48;96266.53;;;18.65;74.53
36386;BME280;24125;47.482;8.770;2023-04-19T13:30:22;96249.91;;;18.63;71.63
36386;BME280;24125;47.482;8.770;2023-04-19T13:32:54;96249.16;;;18.66;73.07
36386;BME280;24125;47.482;8.770;2023-04-19T13:35:29;96246.47;;;18.66;74.05
36386;BME280;24125;47.482;8.770;2023-04-19T13:38:02;96248.81;;;18.71;74.94
36386;BME280;24125;47.482;8.770;2023-04-19T13:40:34;96245.34;;;18.74;73.30
36386;BME280;24125;47.482;8.770;2023-04-19T13:43:07;96240.72;;;18.78;74.59
36386;BME280;24125;47.482;8.770;2023-04-19T13:45:40;96243.09;;;18.83;73.43